sensor_id;sensor_type;location;lat;lon;timestamp;P1;durP1;ratioP1;P2;durP2;ratioP2
19969;SDS011;10146;47.754;9.566;2023-03-20T00:02:07;2.65;;;1.90;;
19969;SDS011;10146;47.754;9.566;2023-03-20T00:04:40;2.50;;;1.92;;
19969;SDS011;10146;47.754;9.566;2023-03-20T00:07:06;2.40;;;1.90;;
19969;SDS011;10146;47.754;9.566;2023-03-20T00:09:36;1.98;;;1.73;;
19969;SDS011;10146;47.754;9.566;2023-03-20T00:12:01;1.52;;;1.42;;
19969;SDS011;10146;47.754;9.566;2023-03-20T00:14:27;2.08;;;1.88;;
19969;SDS011;10146;47.754;9.566;2023-03-20T00:16:52;2.17;;;1.90;;
19969;SDS011;10146;47.754;9.566;2023-03-20T00:21:47;2.10;;;1.90;;
19969;SDS011;10146;47.754;9.566;2023-03-20T00:24:14;2.38;;;1.70;;
19969;SDS011;10146;47.754;9.566;2023-03-20T00:26:40;1.92;;;1.73;;
19969;SDS011;10146;47.754;9.566;2023-03-20T00:29:09;1.63;;;1.52;;
19969;SDS011;10146;47.754;9.566;2023-03-20T00:31:48;2.00;;;1.75;;
19969;SDS011;10146;47.754;9.566;2023-03-20T00:34:15;2.15;;;1.95;;
19969;SDS011;10146;47.754;9.566;2023-03-20T00:36:41;2.72;;;1.73;;
19969;SDS011;10146;47.754;9.566;2023-03-20T00:39:07;2.67;;;1.75;;
19969;SDS011;10146;47.754;9.566;2023-03-20T00:44:03;2.05;;;1.60;;
19969;SDS011;10146;47.754;9.566;2023-03-20T00:46:39;1.60;;;1.50;;
19969;SDS011;10146;47.754;9.566;2023-03-20T00:49:05;3.63;;;1.88;;
19969;SDS011;10146;47.754;9.566;2023-03-20T00:51:33;1.52;;;1.42;;
19969;SDS011;10146;47.754;9.566;2023-03-20T00:54:00;2.65;;;1.60;;
19969;SDS011;10146;47.754;9.566;2023-03-20T00:58:59;1.65;;;1.55;;
19969;SDS011;10146;47.754;9.566;2023-03-20T01:01:27;2.17;;;1.80;;
19969;SDS011;10146;47.754;9.566;2023-03-20T01:03:53;1.50;;;1.40;;
19969;SDS011;10146;47.754;9.566;2023-03-20T01:06:19;1.85;;;1.50;;
19969;SDS011;10146;47.754;9.566;2023-03-20T01:08:45;2.25;;;1.80;;
19969;SDS011;10146;47.754;9.566;2023-03-20T01:11:20;2.00;;;1.70;;
19969;SDS011;10146;47.754;9.566;2023-03-20T01:13:47;3.05;;;1.55;;
19969;SDS011;10146;47.754;9.566;2023-03-20T01:16:21;1.60;;;1.48;;
19969;SDS011;10146;47.754;9.566;2023-03-20T01:18:48;1.92;;;1.70;;
19969;SDS011;10146;47.754;9.566;2023-03-20T01:21:14;1.67;;;1.50;;
19969;SDS011;10146;47.754;9.566;2023-03-20T01:23:40;1.77;;;1.20;;
19969;SDS011;10146;47.754;9.566;2023-03-20T01:28:54;2.00;;;1.80;;
19969;SDS011;10146;47.754;9.566;2023-03-20T01:31:19;1.77;;;1.60;;
19969;SDS011;10146;47.754;9.566;2023-03-20T01:33:45;1.77;;;1.67;;
19969;SDS011;10146;47.754;9.566;2023-03-20T01:36:14;1.60;;;1.50;;
19969;SDS011;10146;47.754;9.566;2023-03-20T01:38:45;2.20;;;1.73;;
19969;SDS011;10146;47.754;9.566;2023-03-20T01:41:15;2.25;;;1.70;;
19969;SDS011;10146;47.754;9.566;2023-03-20T01:43:42;1.77;;;1.67;;
19969;SDS011;10146;47.754;9.566;2023-03-20T01:48:55;1.75;;;1.40;;
19969;SDS011;10146;47.754;9.566;2023-03-20T01:51:41;1.80;;;1.70;;
19969;SDS011;10146;47.754;9.566;2023-03-20T01:54:08;2.00;;;1.80;;
19969;SDS011;10146;47.754;9.566;2023-03-20T01:56:46;1.67;;;1.58;;
19969;SDS011;10146;47.754;9.566;2023-03-20T01:59:17;2.17;;;1.80;;
19969;SDS011;10146;47.754;9.566;2023-03-20T02:01:49;1.73;;;1.63;;
19969;SDS011;10146;47.754;9.566;2023-03-20T02:04:15;2.10;;;1.90;;
19969;SDS011;10146;47.754;9.566;2023-03-20T02:06:42;1.50;;;1.40;;
19969;SDS011;10146;47.754;9.566;2023-03-20T02:09:09;3.47;;;1.90;;
19969;SDS011;10146;47.754;9.566;2023-03-20T02:11:35;2.17;;;1.80;;
19969;SDS011;10146;47.754;9.566;2023-03-20T02:14:03;2.25;;;2.05;;
19969;SDS011;10146;47.754;9.566;2023-03-20T02:16:29;2.10;;;1.83;;
19969;SDS011;10146;47.754;9.566;2023-03-20T02:18:55;2.47;;;2.05;;
19969;SDS011;10146;47.754;9.566;2023-03-20T02:21:38;1.70;;;1.60;;
19969;SDS011;10146;47.754;9.566;2023-03-20T02:24:52;2.55;;;1.70;;
19969;SDS011;10146;47.754;9.566;2023-03-20T02:27:38;2.03;;;1.80;;
19969;SDS011;10146;47.754;9.566;2023-03-20T02:36:04;1.90;;;1.80;;
19969;SDS011;10146;47.754;9.566;2023-03-20T02:41:39;1.70;;;1.60;;
19969;SDS011;10146;47.754;9.566;2023-03-20T02:52:21;1.90;;;1.80;;
19969;SDS011;10146;47.754;9.566;2023-03-20T02:55:32;3.28;;;2.25;;
19969;SDS011;10146;47.754;9.566;2023-03-20T02:57:56;3.28;;;1.70;;
19969;SDS011;10146;47.754;9.566;2023-03-20T03:00:44;1.92;;;1.80;;
19969;SDS011;10146;47.754;9.566;2023-03-20T03:03:37;2.58;;;2.13;;
19969;SDS011;10146;47.754;9.566;2023-03-20T03:08:51;2.40;;;1.80;;
19969;SDS011;10146;47.754;9.566;2023-03-20T03:11:43;2.80;;;1.92;;
19969;SDS011;10146;47.754;9.566;2023-03-20T03:14:16;2.10;;;1.85;;
19969;SDS011;10146;47.754;9.566;2023-03-20T03:16:54;2.67;;;2.47;;
19969;SDS011;10146;47.754;9.566;2023-03-20T03:19:22;4.15;;;2.30;;
19969;SDS011;10146;47.754;9.566;2023-03-20T03:21:52;2.55;;;2.33;;
19969;SDS011;10146;47.754;9.566;2023-03-20T03:24:20;2.28;;;2.17;;
19969;SDS011;10146;47.754;9.566;2023-03-20T03:29:57;2.35;;;2.15;;
19969;SDS011;10146;47.754;9.566;2023-03-20T03:32:31;2.85;;;2.58;;
19969;SDS011;10146;47.754;9.566;2023-03-20T03:35:03;2.78;;;2.58;;
19969;SDS011;10146;47.754;9.566;2023-03-20T03:40:18;3.17;;;2.88;;
19969;SDS011;10146;47.754;9.566;2023-03-20T03:43:01;3.20;;;2.60;;
19969;SDS011;10146;47.754;9.566;2023-03-20T03:45:43;3.08;;;2.72;;
19969;SDS011;10146;47.754;9.566;2023-03-20T03:48:20;2.63;;;2.40;;
19969;SDS011;10146;47.754;9.566;2023-03-20T03:50:52;2.72;;;2.53;;
19969;SDS011;10146;47.754;9.566;2023-03-20T03:53:21;3.33;;;2.67;;
19969;SDS011;10146;47.754;9.566;2023-03-20T03:55:54;3.70;;;3.33;;
19969;SDS011;10146;47.754;9.566;2023-03-20T03:58:26;3.03;;;2.47;;
19969;SDS011;10146;47.754;9.566;2023-03-20T04:01:16;3.47;;;2.72;;
19969;SDS011;10146;47.754;9.566;2023-03-20T04:03:45;2.78;;;2.50;;
19969;SDS011;10146;47.754;9.566;2023-03-20T04:06:16;2.75;;;2.55;;
19969;SDS011;10146;47.754;9.566;2023-03-20T04:08:43;3.20;;;2.90;;
19969;SDS011;10146;47.754;9.566;2023-03-20T04:11:16;3.40;;;3.05;;
19969;SDS011;10146;47.754;9.566;2023-03-20T04:13:53;3.88;;;3.47;;
19969;SDS011;10146;47.754;9.566;2023-03-20T04:16:20;4.47;;;4.07;;
19969;SDS011;10146;47.754;9.566;2023-03-20T04:18:47;4.57;;;4.20;;
19969;SDS011;10146;47.754;9.566;2023-03-20T04:21:13;5.63;;;5.13;;
19969;SDS011;10146;47.754;9.566;2023-03-20T04:23:40;5.07;;;4.68;;
19969;SDS011;10146;47.754;9.566;2023-03-20T04:26:06;4.55;;;4.10;;
19969;SDS011;10146;47.754;9.566;2023-03-20T04:28:32;6.22;;;5.63;;
19969;SDS011;10146;47.754;9.566;2023-03-20T04:30:59;7.85;;;7.05;;
19969;SDS011;10146;47.754;9.566;2023-03-20T04:33:25;6.65;;;6.13;;
19969;SDS011;10146;47.754;9.566;2023-03-20T04:35:52;9.00;;;7.90;;
19969;SDS011;10146;47.754;9.566;2023-03-20T04:38:18;7.20;;;6.60;;
19969;SDS011;10146;47.754;9.566;2023-03-20T04:40:44;8.13;;;7.43;;
19969;SDS011;10146;47.754;9.566;2023-03-20T04:43:11;9.07;;;8.07;;
19969;SDS011;10146;47.754;9.566;2023-03-20T04:45:37;8.65;;;7.85;;
19969;SDS011;10146;47.754;9.566;2023-03-20T04:48:03;8.88;;;7.97;;
19969;SDS011;10146;47.754;9.566;2023-03-20T04:50:29;9.68;;;8.68;;
19969;SDS011;10146;47.754;9.566;2023-03-20T04:52:54;8.57;;;7.78;;
19969;SDS011;10146;47.754;9.566;2023-03-20T04:55:20;9.48;;;8.57;;
19969;SDS011;10146;47.754;9.566;2023-03-20T04:57:46;9.35;;;8.45;;
19969;SDS011;10146;47.754;9.566;2023-03-20T05:00:12;8.88;;;8.07;;
19969;SDS011;10146;47.754;9.566;2023-03-20T05:02:38;8.40;;;7.50;;
19969;SDS011;10146;47.754;9.566;2023-03-20T05:05:04;8.02;;;7.28;;
19969;SDS011;10146;47.754;9.566;2023-03-20T05:07:30;7.70;;;7.00;;
19969;SDS011;10146;47.754;9.566;2023-03-20T05:09:56;8.60;;;7.30;;
19969;SDS011;10146;47.754;9.566;2023-03-20T05:12:22;8.30;;;7.50;;
19969;SDS011;10146;47.754;9.566;2023-03-20T05:14:48;7.90;;;7.15;;
19969;SDS011;10146;47.754;9.566;2023-03-20T05:17:14;7.72;;;7.03;;
19969;SDS011;10146;47.754;9.566;2023-03-20T05:19:42;7.10;;;6.50;;
19969;SDS011;10146;47.754;9.566;2023-03-20T05:22:08;7.35;;;6.53;;
19969;SDS011;10146;47.754;9.566;2023-03-20T05:24:34;7.82;;;7.13;;
19969;SDS011;10146;47.754;9.566;2023-03-20T05:27:00;7.57;;;6.75;;
19969;SDS011;10146;47.754;9.566;2023-03-20T05:29:25;7.43;;;6.63;;
19969;SDS011;10146;47.754;9.566;2023-03-20T05:31:51;8.38;;;6.38;;
19969;SDS011;10146;47.754;9.566;2023-03-20T05:34:17;7.03;;;6.18;;
19969;SDS011;10146;47.754;9.566;2023-03-20T05:36:43;7.45;;;6.80;;
19969;SDS011;10146;47.754;9.566;2023-03-20T05:39:09;8.23;;;6.40;;
19969;SDS011;10146;47.754;9.566;2023-03-20T05:41:35;6.70;;;6.10;;
19969;SDS011;10146;47.754;9.566;2023-03-20T05:44:01;7.10;;;6.45;;
19969;SDS011;10146;47.754;9.566;2023-03-20T05:46:26;6.85;;;6.22;;
19969;SDS011;10146;47.754;9.566;2023-03-20T05:48:52;6.57;;;5.97;;
19969;SDS011;10146;47.754;9.566;2023-03-20T05:51:18;7.28;;;6.57;;
19969;SDS011;10146;47.754;9.566;2023-03-20T05:53:44;7.25;;;6.55;;
19969;SDS011;10146;47.754;9.566;2023-03-20T05:56:10;6.57;;;5.97;;
19969;SDS011;10146;47.754;9.566;2023-03-20T05:58:35;7.18;;;6.57;;
19969;SDS011;10146;47.754;9.566;2023-03-20T06:01:01;7.40;;;6.70;;
19969;SDS011;10146;47.754;9.566;2023-03-20T06:03:27;6.97;;;6.13;;
19969;SDS011;10146;47.754;9.566;2023-03-20T06:05:53;6.78;;;6.07;;
19969;SDS011;10146;47.754;9.566;2023-03-20T06:08:18;6.80;;;6.20;;
19969;SDS011;10146;47.754;9.566;2023-03-20T06:10:44;7.20;;;6.35;;
19969;SDS011;10146;47.754;9.566;2023-03-20T06:13:10;6.72;;;6.13;;
19969;SDS011;10146;47.754;9.566;2023-03-20T06:15:36;6.47;;;5.88;;
19969;SDS011;10146;47.754;9.566;2023-03-20T06:18:01;6.75;;;6.13;;
19969;SDS011;10146;47.754;9.566;2023-03-20T06:20:27;7.88;;;6.90;;
19969;SDS011;10146;47.754;9.566;2023-03-20T06:22:52;6.90;;;6.28;;
19969;SDS011;10146;47.754;9.566;2023-03-20T06:25:19;6.72;;;6.13;;
19969;SDS011;10146;47.754;9.566;2023-03-20T06:27:45;8.18;;;7.40;;
19969;SDS011;10146;47.754;9.566;2023-03-20T06:30:12;8.68;;;7.57;;
19969;SDS011;10146;47.754;9.566;2023-03-20T06:32:39;8.00;;;7.20;;
19969;SDS011;10146;47.754;9.566;2023-03-20T06:35:05;7.65;;;6.95;;
19969;SDS011;10146;47.754;9.566;2023-03-20T06:37:31;8.02;;;7.32;;
19969;SDS011;10146;47.754;9.566;2023-03-20T06:39:57;8.13;;;7.32;;
19969;SDS011;10146;47.754;9.566;2023-03-20T06:42:23;8.93;;;7.82;;
19969;SDS011;10146;47.754;9.566;2023-03-20T06:44:48;7.93;;;7.13;;
19969;SDS011;10146;47.754;9.566;2023-03-20T06:47:14;8.13;;;7.25;;
19969;SDS011;10146;47.754;9.566;2023-03-20T06:49:40;8.48;;;7.65;;
19969;SDS011;10146;47.754;9.566;2023-03-20T06:52:06;9.23;;;7.72;;
19969;SDS011;10146;47.754;9.566;2023-03-20T06:54:33;9.38;;;8.15;;
19969;SDS011;10146;47.754;9.566;2023-03-20T06:56:58;10.80;;;9.38;;
19969;SDS011;10146;47.754;9.566;2023-03-20T06:59:24;10.00;;;8.88;;
19969;SDS011;10146;47.754;9.566;2023-03-20T07:01:51;10.98;;;9.13;;
19969;SDS011;10146;47.754;9.566;2023-03-20T07:04:17;9.98;;;8.98;;
19969;SDS011;10146;47.754;9.566;2023-03-20T07:06:43;12.55;;;9.88;;
19969;SDS011;10146;47.754;9.566;2023-03-20T07:09:09;12.27;;;10.30;;
19969;SDS011;10146;47.754;9.566;2023-03-20T07:11:34;9.68;;;8.65;;
19969;SDS011;10146;47.754;9.566;2023-03-20T07:14:00;10.88;;;9.77;;
19969;SDS011;10146;47.754;9.566;2023-03-20T07:16:26;10.93;;;9.82;;
19969;SDS011;10146;47.754;9.566;2023-03-20T07:18:52;10.25;;;9.15;;
19969;SDS011;10146;47.754;9.566;2023-03-20T07:21:19;10.30;;;9.30;;
19969;SDS011;10146;47.754;9.566;2023-03-20T07:23:46;10.90;;;9.77;;
19969;SDS011;10146;47.754;9.566;2023-03-20T07:26:12;12.90;;;10.70;;
19969;SDS011;10146;47.754;9.566;2023-03-20T07:28:38;11.70;;;10.52;;
19969;SDS011;10146;47.754;9.566;2023-03-20T07:31:04;11.93;;;10.63;;
19969;SDS011;10146;47.754;9.566;2023-03-20T07:33:37;13.43;;;10.10;;
19969;SDS011;10146;47.754;9.566;2023-03-20T07:36:03;10.18;;;9.18;;
19969;SDS011;10146;47.754;9.566;2023-03-20T07:38:28;10.32;;;9.32;;
19969;SDS011;10146;47.754;9.566;2023-03-20T07:40:54;10.95;;;9.75;;
19969;SDS011;10146;47.754;9.566;2023-03-20T07:43:20;11.43;;;10.10;;
19969;SDS011;10146;47.754;9.566;2023-03-20T07:45:45;10.93;;;9.65;;
19969;SDS011;10146;47.754;9.566;2023-03-20T07:48:11;9.50;;;8.50;;
19969;SDS011;10146;47.754;9.566;2023-03-20T07:50:39;10.10;;;9.10;;
19969;SDS011;10146;47.754;9.566;2023-03-20T07:53:04;9.35;;;8.38;;
19969;SDS011;10146;47.754;9.566;2023-03-20T07:55:31;9.55;;;8.65;;
19969;SDS011;10146;47.754;9.566;2023-03-20T07:57:57;9.40;;;8.38;;
19969;SDS011;10146;47.754;9.566;2023-03-20T08:00:22;8.55;;;7.75;;
19969;SDS011;10146;47.754;9.566;2023-03-20T08:02:48;9.63;;;8.63;;
19969;SDS011;10146;47.754;9.566;2023-03-20T08:05:14;9.27;;;8.32;;
19969;SDS011;10146;47.754;9.566;2023-03-20T08:07:39;8.48;;;7.68;;
19969;SDS011;10146;47.754;9.566;2023-03-20T08:10:05;8.85;;;7.85;;
19969;SDS011;10146;47.754;9.566;2023-03-20T08:12:31;8.60;;;7.80;;
19969;SDS011;10146;47.754;9.566;2023-03-20T08:14:57;8.15;;;7.35;;
19969;SDS011;10146;47.754;9.566;2023-03-20T08:17:22;8.48;;;7.68;;
19969;SDS011;10146;47.754;9.566;2023-03-20T08:19:48;6.95;;;6.32;;
19969;SDS011;10146;47.754;9.566;2023-03-20T08:22:14;9.45;;;7.28;;
19969;SDS011;10146;47.754;9.566;2023-03-20T08:24:40;7.25;;;6.63;;
19969;SDS011;10146;47.754;9.566;2023-03-20T08:27:05;6.47;;;5.88;;
19969;SDS011;10146;47.754;9.566;2023-03-20T08:29:32;6.43;;;5.82;;
19969;SDS011;10146;47.754;9.566;2023-03-20T08:31:57;5.63;;;5.10;;
19969;SDS011;10146;47.754;9.566;2023-03-20T08:34:23;5.43;;;4.85;;
19969;SDS011;10146;47.754;9.566;2023-03-20T08:36:48;5.30;;;4.72;;
19969;SDS011;10146;47.754;9.566;2023-03-20T08:39:14;4.90;;;4.50;;
19969;SDS011;10146;47.754;9.566;2023-03-20T08:41:40;5.45;;;4.95;;
19969;SDS011;10146;47.754;9.566;2023-03-20T08:44:09;5.70;;;4.63;;
19969;SDS011;10146;47.754;9.566;2023-03-20T08:46:36;4.50;;;4.10;;
19969;SDS011;10146;47.754;9.566;2023-03-20T08:49:01;4.65;;;4.25;;
19969;SDS011;10146;47.754;9.566;2023-03-20T08:51:29;4.78;;;4.10;;
19969;SDS011;10146;47.754;9.566;2023-03-20T08:53:54;4.80;;;4.22;;
19969;SDS011;10146;47.754;9.566;2023-03-20T08:56:20;4.55;;;4.15;;
19969;SDS011;10146;47.754;9.566;2023-03-20T08:58:46;3.90;;;3.58;;
19969;SDS011;10146;47.754;9.566;2023-03-20T09:01:12;4.28;;;3.90;;
19969;SDS011;10146;47.754;9.566;2023-03-20T09:03:39;4.07;;;3.58;;
19969;SDS011;10146;47.754;9.566;2023-03-20T09:06:05;4.07;;;3.78;;
19969;SDS011;10146;47.754;9.566;2023-03-20T09:08:33;3.78;;;3.47;;
19969;SDS011;10146;47.754;9.566;2023-03-20T09:10:58;4.88;;;3.25;;
19969;SDS011;10146;47.754;9.566;2023-03-20T09:13:24;3.72;;;3.42;;
19969;SDS011;10146;47.754;9.566;2023-03-20T09:15:50;4.20;;;3.58;;
19969;SDS011;10146;47.754;9.566;2023-03-20T09:18:17;3.55;;;3.25;;
19969;SDS011;10146;47.754;9.566;2023-03-20T09:20:43;7.90;;;5.68;;
19969;SDS011;10146;47.754;9.566;2023-03-20T09:23:09;4.90;;;3.53;;
19969;SDS011;10146;47.754;9.566;2023-03-20T09:25:35;4.05;;;3.38;;
19969;SDS011;10146;47.754;9.566;2023-03-20T09:28:00;3.42;;;2.85;;
19969;SDS011;10146;47.754;9.566;2023-03-20T09:30:26;3.28;;;2.53;;
19969;SDS011;10146;47.754;9.566;2023-03-20T09:32:52;2.88;;;2.67;;
19969;SDS011;10146;47.754;9.566;2023-03-20T09:35:17;3.17;;;2.65;;
19969;SDS011;10146;47.754;9.566;2023-03-20T09:37:43;3.35;;;2.80;;
19969;SDS011;10146;47.754;9.566;2023-03-20T09:40:18;3.55;;;2.33;;
19969;SDS011;10146;47.754;9.566;2023-03-20T09:43:02;2.63;;;2.42;;
19969;SDS011;10146;47.754;9.566;2023-03-20T09:48:40;2.72;;;2.20;;
19969;SDS011;10146;47.754;9.566;2023-03-20T09:51:17;2.60;;;2.40;;
19969;SDS011;10146;47.754;9.566;2023-03-20T09:54:20;2.42;;;2.22;;
19969;SDS011;10146;47.754;9.566;2023-03-20T09:56:51;2.42;;;2.22;;
19969;SDS011;10146;47.754;9.566;2023-03-20T09:59:18;1.90;;;1.80;;
19969;SDS011;10146;47.754;9.566;2023-03-20T10:01:55;2.83;;;2.20;;
19969;SDS011;10146;47.754;9.566;2023-03-20T10:04:26;2.47;;;2.28;;
19969;SDS011;10146;47.754;9.566;2023-03-20T10:06:53;2.20;;;2.00;;
19969;SDS011;10146;47.754;9.566;2023-03-20T10:09:21;2.00;;;1.90;;
19969;SDS011;10146;47.754;9.566;2023-03-20T10:20:15;1.70;;;1.60;;
19969;SDS011;10146;47.754;9.566;2023-03-20T10:22:46;1.77;;;1.50;;
19969;SDS011;10146;47.754;9.566;2023-03-20T10:25:27;1.90;;;1.60;;
19969;SDS011;10146;47.754;9.566;2023-03-20T10:27:58;1.88;;;1.77;;
19969;SDS011;10146;47.754;9.566;2023-03-20T10:36:09;1.88;;;1.30;;
19969;SDS011;10146;47.754;9.566;2023-03-20T10:38:53;1.30;;;1.20;;
19969;SDS011;10146;47.754;9.566;2023-03-20T10:41:27;1.65;;;1.00;;
19969;SDS011;10146;47.754;9.566;2023-03-20T10:43:56;1.38;;;1.27;;
19969;SDS011;10146;47.754;9.566;2023-03-20T10:46:39;1.35;;;1.25;;
19969;SDS011;10146;47.754;9.566;2023-03-20T10:51:56;1.42;;;1.25;;
19969;SDS011;10146;47.754;9.566;2023-03-20T10:54:28;1.40;;;1.23;;
19969;SDS011;10146;47.754;9.566;2023-03-20T10:56:58;1.42;;;1.33;;
19969;SDS011;10146;47.754;9.566;2023-03-20T10:59:28;1.20;;;1.10;;
19969;SDS011;10146;47.754;9.566;2023-03-20T11:01:59;1.77;;;1.17;;
19969;SDS011;10146;47.754;9.566;2023-03-20T11:04:24;1.60;;;0.90;;
19969;SDS011;10146;47.754;9.566;2023-03-20T11:10:05;1.30;;;0.95;;
19969;SDS011;10146;47.754;9.566;2023-03-20T11:12:36;1.38;;;1.20;;
19969;SDS011;10146;47.754;9.566;2023-03-20T11:17:49;0.70;;;0.70;;
19969;SDS011;10146;47.754;9.566;2023-03-20T11:20:23;0.80;;;0.70;;
19969;SDS011;10146;47.754;9.566;2023-03-20T11:22:57;1.58;;;0.65;;
19969;SDS011;10146;47.754;9.566;2023-03-20T11:25:31;0.80;;;0.43;;
19969;SDS011;10146;47.754;9.566;2023-03-20T11:28:20;0.68;;;0.60;;
19969;SDS011;10146;47.754;9.566;2023-03-20T11:30:58;0.40;;;0.40;;
19969;SDS011;10146;47.754;9.566;2023-03-20T11:33:26;0.68;;;0.50;;
19969;SDS011;10146;47.754;9.566;2023-03-20T11:35:54;1.08;;;0.98;;
19969;SDS011;10146;47.754;9.566;2023-03-20T11:38:21;0.70;;;0.70;;
19969;SDS011;10146;47.754;9.566;2023-03-20T11:40:48;2.15;;;0.70;;
19969;SDS011;10146;47.754;9.566;2023-03-20T11:43:23;0.77;;;0.77;;
19969;SDS011;10146;47.754;9.566;2023-03-20T11:45:54;0.80;;;0.80;;
19969;SDS011;10146;47.754;9.566;2023-03-20T11:48:23;1.38;;;0.80;;
19969;SDS011;10146;47.754;9.566;2023-03-20T11:50:55;1.00;;;0.90;;
19969;SDS011;10146;47.754;9.566;2023-03-20T11:53:37;1.42;;;1.13;;
19969;SDS011;10146;47.754;9.566;2023-03-20T11:56:23;1.33;;;0.90;;
19969;SDS011;10146;47.754;9.566;2023-03-20T12:01:22;0.77;;;0.77;;
19969;SDS011;10146;47.754;9.566;2023-03-20T12:06:25;1.38;;;0.90;;
19969;SDS011;10146;47.754;9.566;2023-03-20T12:08:59;1.30;;;0.70;;
19969;SDS011;10146;47.754;9.566;2023-03-20T12:11:44;0.30;;;0.30;;
19969;SDS011;10146;47.754;9.566;2023-03-20T12:14:21;1.10;;;0.38;;
19969;SDS011;10146;47.754;9.566;2023-03-20T12:16:53;0.52;;;0.50;;
19969;SDS011;10146;47.754;9.566;2023-03-20T12:19:27;0.45;;;0.45;;
19969;SDS011;10146;47.754;9.566;2023-03-20T12:22:00;1.23;;;0.50;;
19969;SDS011;10146;47.754;9.566;2023-03-20T12:24:41;1.05;;;0.47;;
19969;SDS011;10146;47.754;9.566;2023-03-20T12:27:45;0.75;;;0.60;;
19969;SDS011;10146;47.754;9.566;2023-03-20T12:33:33;0.77;;;0.60;;
19969;SDS011;10146;47.754;9.566;2023-03-20T12:36:05;0.88;;;0.50;;
19969;SDS011;10146;47.754;9.566;2023-03-20T12:38:38;0.68;;;0.60;;
19969;SDS011;10146;47.754;9.566;2023-03-20T12:49:34;0.77;;;0.43;;
19969;SDS011;10146;47.754;9.566;2023-03-20T12:57:44;0.50;;;0.40;;
19969;SDS011;10146;47.754;9.566;2023-03-20T13:00:25;0.47;;;0.47;;
19969;SDS011;10146;47.754;9.566;2023-03-20T13:10:33;1.70;;;0.70;;
19969;SDS011;10146;47.754;9.566;2023-03-20T13:15:59;0.70;;;0.55;;
19969;SDS011;10146;47.754;9.566;2023-03-20T13:18:49;0.55;;;0.50;;
19969;SDS011;10146;47.754;9.566;2023-03-20T13:21:26;0.50;;;0.50;;
19969;SDS011;10146;47.754;9.566;2023-03-20T13:24:06;1.05;;;0.70;;
19969;SDS011;10146;47.754;9.566;2023-03-20T13:26:54;1.15;;;0.70;;
19969;SDS011;10146;47.754;9.566;2023-03-20T13:29:27;1.55;;;0.70;;
19969;SDS011;10146;47.754;9.566;2023-03-20T13:32:10;0.77;;;0.60;;
19969;SDS011;10146;47.754;9.566;2023-03-20T13:37:27;1.02;;;0.60;;
19969;SDS011;10146;47.754;9.566;2023-03-20T13:40:13;0.60;;;0.60;;
19969;SDS011;10146;47.754;9.566;2023-03-20T13:42:49;0.50;;;0.50;;
19969;SDS011;10146;47.754;9.566;2023-03-20T13:48:44;0.65;;;0.65;;
19969;SDS011;10146;47.754;9.566;2023-03-20T14:01:47;0.82;;;0.68;;
19969;SDS011;10146;47.754;9.566;2023-03-20T14:04:34;1.30;;;0.70;;
19969;SDS011;10146;47.754;9.566;2023-03-20T14:07:00;0.70;;;0.70;;
19969;SDS011;10146;47.754;9.566;2023-03-20T14:09:27;1.63;;;0.82;;
19969;SDS011;10146;47.754;9.566;2023-03-20T14:11:58;1.30;;;1.15;;
19969;SDS011;10146;47.754;9.566;2023-03-20T14:14:53;0.80;;;0.68;;
19969;SDS011;10146;47.754;9.566;2023-03-20T14:17:26;3.22;;;1.35;;
19969;SDS011;10146;47.754;9.566;2023-03-20T14:19:54;1.05;;;0.95;;
19969;SDS011;10146;47.754;9.566;2023-03-20T14:22:28;2.53;;;1.40;;
19969;SDS011;10146;47.754;9.566;2023-03-20T14:24:59;0.65;;;0.65;;
19969;SDS011;10146;47.754;9.566;2023-03-20T14:27:34;0.70;;;0.70;;
19969;SDS011;10146;47.754;9.566;2023-03-20T14:33:04;1.20;;;0.73;;
19969;SDS011;10146;47.754;9.566;2023-03-20T14:38:23;0.77;;;0.70;;
19969;SDS011;10146;47.754;9.566;2023-03-20T14:54:56;0.75;;;0.70;;
19969;SDS011;10146;47.754;9.566;2023-03-20T14:57:40;0.70;;;0.70;;
19969;SDS011;10146;47.754;9.566;2023-03-20T15:00:19;0.68;;;0.60;;
19969;SDS011;10146;47.754;9.566;2023-03-20T15:02:47;0.70;;;0.70;;
19969;SDS011;10146;47.754;9.566;2023-03-20T15:05:22;0.70;;;0.60;;
19969;SDS011;10146;47.754;9.566;2023-03-20T15:07:57;0.90;;;0.70;;
19969;SDS011;10146;47.754;9.566;2023-03-20T15:10:36;0.82;;;0.52;;
19969;SDS011;10146;47.754;9.566;2023-03-20T15:13:11;2.03;;;1.02;;
19969;SDS011;10146;47.754;9.566;2023-03-20T15:15:50;0.65;;;0.65;;
19969;SDS011;10146;47.754;9.566;2023-03-20T15:18:40;0.73;;;0.60;;
19969;SDS011;10146;47.754;9.566;2023-03-20T15:23:42;0.82;;;0.80;;
19969;SDS011;10146;47.754;9.566;2023-03-20T15:26:08;0.52;;;0.40;;
19969;SDS011;10146;47.754;9.566;2023-03-20T15:28:35;0.60;;;0.60;;
19969;SDS011;10146;47.754;9.566;2023-03-20T15:31:02;0.50;;;0.50;;
19969;SDS011;10146;47.754;9.566;2023-03-20T15:36:06;1.25;;;0.70;;
19969;SDS011;10146;47.754;9.566;2023-03-20T15:38:34;0.70;;;0.70;;
19969;SDS011;10146;47.754;9.566;2023-03-20T15:41:05;0.95;;;0.77;;
19969;SDS011;10146;47.754;9.566;2023-03-20T15:43:32;0.95;;;0.65;;
19969;SDS011;10146;47.754;9.566;2023-03-20T15:45:59;0.60;;;0.60;;
19969;SDS011;10146;47.754;9.566;2023-03-20T15:48:28;1.02;;;0.40;;
19969;SDS011;10146;47.754;9.566;2023-03-20T15:50:55;1.30;;;0.60;;
19969;SDS011;10146;47.754;9.566;2023-03-20T15:53:31;0.95;;;0.50;;
19969;SDS011;10146;47.754;9.566;2023-03-20T15:58:32;2.13;;;0.60;;
19969;SDS011;10146;47.754;9.566;2023-03-20T16:00:59;0.82;;;0.60;;
19969;SDS011;10146;47.754;9.566;2023-03-20T16:03:26;1.63;;;0.60;;
19969;SDS011;10146;47.754;9.566;2023-03-20T16:05:53;0.45;;;0.40;;
19969;SDS011;10146;47.754;9.566;2023-03-20T16:08:23;0.50;;;0.50;;
19969;SDS011;10146;47.754;9.566;2023-03-20T16:11:11;0.65;;;0.55;;
19969;SDS011;10146;47.754;9.566;2023-03-20T16:13:39;0.43;;;0.30;;
19969;SDS011;10146;47.754;9.566;2023-03-20T16:16:15;2.13;;;0.55;;
19969;SDS011;10146;47.754;9.566;2023-03-20T16:18:43;0.60;;;0.60;;
19969;SDS011;10146;47.754;9.566;2023-03-20T16:21:14;1.40;;;0.82;;
19969;SDS011;10146;47.754;9.566;2023-03-20T16:23:47;1.05;;;0.50;;
19969;SDS011;10146;47.754;9.566;2023-03-20T16:26:16;0.70;;;0.70;;
19969;SDS011;10146;47.754;9.566;2023-03-20T16:28:45;0.55;;;0.52;;
19969;SDS011;10146;47.754;9.566;2023-03-20T16:31:17;0.73;;;0.50;;
19969;SDS011;10146;47.754;9.566;2023-03-20T16:33:47;1.58;;;0.57;;
19969;SDS011;10146;47.754;9.566;2023-03-20T16:36:17;0.57;;;0.40;;
19969;SDS011;10146;47.754;9.566;2023-03-20T16:38:53;1.42;;;0.60;;
19969;SDS011;10146;47.754;9.566;2023-03-20T16:41:35;0.63;;;0.63;;
19969;SDS011;10146;47.754;9.566;2023-03-20T16:44:12;1.10;;;0.50;;
19969;SDS011;10146;47.754;9.566;2023-03-20T16:47:13;1.02;;;0.50;;
19969;SDS011;10146;47.754;9.566;2023-03-20T16:52:11;1.27;;;0.60;;
19969;SDS011;10146;47.754;9.566;2023-03-20T16:54:39;0.82;;;0.40;;
19969;SDS011;10146;47.754;9.566;2023-03-20T16:57:09;0.95;;;0.63;;
19969;SDS011;10146;47.754;9.566;2023-03-20T16:59:41;0.60;;;0.50;;
19969;SDS011;10146;47.754;9.566;2023-03-20T17:02:50;0.60;;;0.50;;
19969;SDS011;10146;47.754;9.566;2023-03-20T17:05:06;0.40;;;0.40;;
19969;SDS011;10146;47.754;9.566;2023-03-20T17:07:37;0.60;;;0.57;;
19969;SDS011;10146;47.754;9.566;2023-03-20T17:10:17;0.60;;;0.60;;
19969;SDS011;10146;47.754;9.566;2023-03-20T17:12:46;0.50;;;0.50;;
19969;SDS011;10146;47.754;9.566;2023-03-20T17:15:20;0.63;;;0.50;;
19969;SDS011;10146;47.754;9.566;2023-03-20T17:17:47;0.52;;;0.52;;
19969;SDS011;10146;47.754;9.566;2023-03-20T17:20:24;0.60;;;0.60;;
19969;SDS011;10146;47.754;9.566;2023-03-20T17:22:51;0.55;;;0.55;;
19969;SDS011;10146;47.754;9.566;2023-03-20T17:25:17;0.45;;;0.45;;
19969;SDS011;10146;47.754;9.566;2023-03-20T17:27:43;0.63;;;0.47;;
19969;SDS011;10146;47.754;9.566;2023-03-20T17:30:12;0.93;;;0.40;;